METAR Formatted Surface Weather Observation
Issued by NWS

Home | Current Version | Previous Version | Text Only | Print | Product List | Glossary On
Versions: 1 2 3 4 5 6 7 8 9 10 11 12 13 14 15 16 17 18 19 20 21 22 23 24 25 26 27
000
SAUS45 KTWC 171454
MTRSAD
METAR KSAD 171451Z AUTO 00000KT 10SM CLR 16/M13 A3000 RMK AO2 SLP123
T01611133 52020



USA.gov is the U.S. government's official web portal to all federal, state and local government web resources and services.